createdAt,value
2022-11-24T00:04:38.997Z,3.30
2022-11-24T00:10:02.569Z,4.37
2022-11-24T00:15:27.214Z,3.60
2022-11-24T00:20:53.406Z,3.83
2022-11-24T00:26:17.700Z,3.27
2022-11-24T00:31:43.569Z,3.40
2022-11-24T00:37:06.830Z,2.20
2022-11-24T00:42:30.082Z,2.43
2022-11-24T00:47:54.775Z,2.53
2022-11-24T00:53:18.109Z,2.40
2022-11-24T00:58:41.514Z,2.47
2022-11-24T01:04:06.293Z,2.07
2022-11-24T01:09:29.531Z,3.77
2022-11-24T01:14:52.813Z,3.00
2022-11-24T01:20:18.135Z,4.37
2022-11-24T01:25:41.389Z,2.87
2022-11-24T01:31:06.953Z,2.73
2022-11-24T01:36:31.583Z,2.30
2022-11-24T01:41:54.933Z,2.83
2022-11-24T01:47:28.845Z,3.10
2022-11-24T01:52:54.898Z,4.57
2022-11-24T01:58:21.310Z,3.13
2022-11-24T02:03:45.314Z,3.00
2022-11-24T02:09:14.771Z,3.00
2022-11-24T02:14:39.511Z,3.37
2022-11-24T02:20:05.603Z,3.13
2022-11-24T02:25:34.002Z,1.70
2022-11-24T02:30:59.393Z,2.83
2022-11-24T02:36:22.772Z,2.40
2022-11-24T02:41:50.123Z,4.73
2022-11-24T02:47:14.856Z,2.07
2022-11-24T02:52:38.215Z,3.20
2022-11-24T02:58:01.457Z,2.43
2022-11-24T03:03:26.400Z,3.30
2022-11-24T03:08:49.733Z,3.90
2022-11-24T03:14:13.064Z,2.20
2022-11-24T03:19:37.798Z,3.07
2022-11-24T03:25:01.093Z,2.17
2022-11-24T03:30:24.508Z,2.50
2022-11-24T03:35:49.279Z,1.53
2022-11-24T03:41:12.542Z,4.27
2022-11-24T03:46:35.808Z,2.37
2022-11-24T03:52:05.100Z,2.43
2022-11-24T03:57:31.702Z,2.33
2022-11-24T04:02:55.134Z,1.50
2022-11-24T04:08:20.362Z,1.73
2022-11-24T04:13:43.601Z,1.40
2022-11-24T04:19:07.327Z,1.53
2022-11-24T04:24:32.005Z,1.47
2022-11-24T04:29:55.415Z,1.40
2022-11-24T04:35:18.840Z,1.67
2022-11-24T04:40:43.408Z,1.60
2022-11-24T04:46:06.664Z,1.20
2022-11-24T04:51:29.871Z,1.43
2022-11-24T04:56:54.530Z,1.30
2022-11-24T05:02:17.966Z,3.03
2022-11-24T05:07:41.139Z,1.90
2022-11-24T05:13:12.417Z,2.20
2022-11-24T05:18:35.801Z,2.20
2022-11-24T05:23:59.002Z,2.03
2022-11-24T05:29:23.508Z,4.10
2022-11-24T05:34:46.724Z,1.93
2022-11-24T05:40:10.530Z,1.83
2022-11-24T05:45:35.047Z,3.13
2022-11-24T05:50:59.009Z,1.40
2022-11-24T05:56:22.222Z,1.93
2022-11-24T06:01:46.850Z,1.37
2022-11-24T06:07:11.364Z,1.13
2022-11-24T06:12:34.616Z,1.50
2022-11-24T06:17:59.172Z,1.80
2022-11-24T06:23:22.338Z,1.70
2022-11-24T06:28:45.493Z,3.30
2022-11-24T06:34:11.610Z,1.50
2022-11-24T06:39:34.818Z,1.23
2022-11-24T06:44:58.028Z,0.80
2022-11-24T06:50:22.628Z,0.70
2022-11-24T06:55:46.484Z,1.03
2022-11-24T07:01:10.054Z,1.80
2022-11-24T07:06:34.721Z,1.83
2022-11-24T07:11:57.859Z,1.80
2022-11-24T07:17:21.063Z,3.33
2022-11-24T07:22:45.583Z,2.73
2022-11-24T07:28:08.756Z,2.50
2022-11-24T07:33:31.917Z,2.43
2022-11-24T07:38:56.482Z,1.97
2022-11-24T07:44:19.651Z,1.70
2022-11-24T07:49:42.797Z,1.80
2022-11-24T07:55:08.804Z,1.67
2022-11-24T08:00:31.967Z,2.13
2022-11-24T08:06:22.363Z,2.60
2022-11-24T08:11:40.347Z,2.43
2022-11-24T08:17:03.610Z,2.47
2022-11-24T08:22:26.789Z,3.67
2022-11-24T08:27:51.355Z,2.40
2022-11-24T08:33:14.485Z,2.30
2022-11-24T08:38:38.183Z,2.60
2022-11-24T08:44:02.753Z,3.13
2022-11-24T08:49:25.939Z,3.03
2022-11-24T08:54:50.382Z,2.60
2022-11-24T09:00:22.164Z,3.20
2022-11-24T09:05:53.049Z,4.30
2022-11-24T09:11:17.465Z,4.07
2022-11-24T09:16:42.008Z,3.60
2022-11-24T09:22:05.123Z,4.67
2022-11-24T09:27:28.762Z,5.17
2022-11-24T09:32:53.361Z,4.63
2022-11-24T09:38:16.506Z,5.37
2022-11-24T09:43:42.594Z,6.70
2022-11-24T09:49:09.988Z,4.90
2022-11-24T09:54:34.394Z,6.20
2022-11-24T10:00:01.219Z,4.90
2022-11-24T10:05:27.706Z,4.50
2022-11-24T10:10:57.026Z,5.60
2022-11-24T10:16:27.014Z,6.13
2022-11-24T10:22:03.858Z,6.83
2022-11-24T10:27:30.396Z,4.83
2022-11-24T10:32:57.653Z,3.60
2022-11-24T10:38:33.430Z,4.27
2022-11-24T10:43:59.206Z,4.37
2022-11-24T10:49:27.677Z,4.07
2022-11-24T10:55:00.043Z,4.93
2022-11-24T11:00:41.479Z,3.70
2022-11-24T11:06:10.907Z,4.23
2022-11-24T11:11:36.397Z,4.43
2022-11-24T11:17:00.002Z,4.23
2022-11-24T11:22:26.214Z,3.63
2022-11-24T11:27:51.118Z,4.93
2022-11-24T11:39:06.814Z,3.63
2022-11-24T11:44:36.907Z,4.30
2022-11-24T11:50:00.325Z,3.40
2022-11-24T11:55:32.933Z,4.23
2022-11-24T12:01:02.214Z,4.53
2022-11-24T12:06:40.770Z,5.13
2022-11-24T12:12:19.853Z,2.70
2022-11-24T12:17:49.797Z,2.80
2022-11-24T12:23:21.248Z,4.70
2022-11-24T12:28:51.262Z,3.37
2022-11-24T12:34:28.430Z,3.37
2022-11-24T12:39:56.273Z,3.43
2022-11-24T12:45:23.934Z,4.10
2022-11-24T12:50:48.551Z,4.17
2022-11-24T12:56:15.697Z,3.20
2022-11-24T13:01:43.987Z,2.70
2022-11-24T13:07:14.122Z,3.57
2022-11-24T13:12:54.494Z,2.67
2022-11-24T13:18:46.649Z,3.33
2022-11-24T13:24:23.712Z,2.67
2022-11-24T13:29:47.529Z,2.53
2022-11-24T13:35:14.550Z,3.60
2022-11-24T13:40:59.859Z,3.67
2022-11-24T13:47:05.567Z,2.80
2022-11-24T13:52:45.186Z,3.40
2022-11-24T13:58:35.388Z,2.50
2022-11-24T14:09:45.704Z,3.57
2022-11-24T14:15:35.422Z,4.73
2022-11-24T14:20:59.393Z,3.67
2022-11-24T14:26:24.204Z,2.60
2022-11-24T14:31:55.280Z,2.57
2022-11-24T14:37:18.942Z,1.80
2022-11-24T14:42:42.175Z,2.93
2022-11-24T14:48:15.312Z,3.07
2022-11-24T14:53:42.043Z,2.57
2022-11-24T14:59:06.113Z,2.53
2022-11-24T15:05:02.320Z,2.83
2022-11-24T15:10:34.117Z,2.97
2022-11-24T15:16:03.030Z,2.23
2022-11-24T15:21:35.777Z,2.93
2022-11-24T15:27:02.185Z,2.60
2022-11-24T15:32:25.332Z,1.80
2022-11-24T15:37:50.226Z,3.47
2022-11-24T15:43:29.278Z,3.60
2022-11-24T15:48:53.737Z,2.80
2022-11-24T15:54:19.230Z,2.23
2022-11-24T15:59:42.363Z,2.57
2022-11-24T16:05:06.242Z,3.43
2022-11-24T16:10:33.202Z,4.60
2022-11-24T16:15:56.453Z,3.67
2022-11-24T16:21:19.610Z,3.23
2022-11-24T16:26:44.277Z,3.53
2022-11-24T16:32:07.631Z,3.63
2022-11-24T16:37:32.146Z,2.57
2022-11-24T16:42:58.023Z,3.13
2022-11-24T16:48:21.144Z,2.27
2022-11-24T16:53:44.485Z,2.23
2022-11-24T16:59:09.240Z,2.23
2022-11-24T17:04:32.507Z,2.77
2022-11-24T17:09:56.062Z,2.90
2022-11-24T17:15:42.783Z,2.60
2022-11-24T17:21:09.227Z,2.07
2022-11-24T17:26:33.226Z,2.13
2022-11-24T17:31:57.853Z,2.83
2022-11-24T17:37:21.034Z,2.30
2022-11-24T17:42:44.258Z,1.70
2022-11-24T17:48:08.959Z,2.63
2022-11-24T17:53:32.600Z,3.33
2022-11-24T17:58:56.597Z,3.10
2022-11-24T18:04:21.362Z,3.13
2022-11-24T18:09:44.586Z,1.90
2022-11-24T18:15:08.753Z,4.13
2022-11-24T18:20:33.725Z,2.10
2022-11-24T18:25:57.695Z,3.03
2022-11-24T18:31:22.321Z,2.10
2022-11-24T18:36:47.559Z,1.83
2022-11-24T18:42:10.997Z,2.97
2022-11-24T18:47:34.822Z,2.17
2022-11-24T18:52:59.383Z,2.33
2022-11-24T18:58:22.480Z,3.77
2022-11-24T19:03:49.091Z,2.70
2022-11-24T19:09:15.885Z,2.13
2022-11-24T19:14:39.068Z,3.33
2022-11-24T19:20:02.159Z,3.30
2022-11-24T19:25:26.698Z,2.23
2022-11-24T19:30:49.917Z,2.50
2022-11-24T19:36:15.483Z,2.37
2022-11-24T19:41:40.048Z,2.77
2022-11-24T19:47:03.130Z,2.87
2022-11-24T19:52:26.346Z,2.90
2022-11-24T19:57:50.870Z,2.03
2022-11-24T20:03:14.081Z,2.73
2022-11-24T20:08:37.998Z,1.93
2022-11-24T20:14:02.945Z,2.63
2022-11-24T20:19:26.871Z,2.83
2022-11-24T20:24:49.947Z,2.40
2022-11-24T20:30:16.023Z,2.27
2022-11-24T20:35:39.154Z,3.23
2022-11-24T20:41:08.829Z,1.97
2022-11-24T20:46:35.615Z,1.60
2022-11-24T20:51:58.709Z,2.37
2022-11-24T20:57:21.870Z,2.33
2022-11-24T21:02:46.543Z,2.77
2022-11-24T21:08:09.761Z,2.30
2022-11-24T21:13:33.623Z,2.47
2022-11-24T21:18:59.599Z,2.40
2022-11-24T21:24:22.743Z,3.20
2022-11-24T21:29:45.871Z,2.23
2022-11-24T21:35:10.547Z,2.90
2022-11-24T21:40:33.862Z,2.33
2022-11-24T21:45:57.177Z,1.90
2022-11-24T21:51:22.126Z,2.53
2022-11-24T21:56:45.285Z,3.23
2022-11-24T22:02:12.987Z,4.40
2022-11-24T22:07:38.087Z,3.37
2022-11-24T22:13:01.347Z,1.87
2022-11-24T22:18:24.427Z,2.60
2022-11-24T22:23:51.907Z,2.53
2022-11-24T22:29:15.463Z,2.33
2022-11-24T22:34:38.583Z,2.83
2022-11-24T22:40:03.269Z,4.57
2022-11-24T22:45:26.500Z,2.20
2022-11-24T22:50:49.636Z,2.43
2022-11-24T22:56:14.149Z,5.87
2022-11-24T23:01:37.315Z,2.33
2022-11-24T23:07:00.490Z,2.43
2022-11-24T23:12:24.953Z,2.27
2022-11-24T23:17:48.037Z,4.37
2022-11-24T23:23:11.175Z,3.10
2022-11-24T23:28:36.995Z,2.70
2022-11-24T23:34:01.113Z,3.03
2022-11-24T23:39:24.294Z,2.10
2022-11-24T23:44:48.763Z,2.80
2022-11-24T23:50:12.267Z,2.20
2022-11-24T23:55:35.357Z,2.20
